Time;durP1;ratioP1;P1;durP2;ratioP2;P2;SDS_P1;SDS_P2;PMS_P1;PMS_P2;Temp;Humidity;BMP_temperature;BMP_pressure;BME280_temperature;BME280_humidity;BME280_pressure;Samples;Min_cycle;Max_cycle;Signal;HPM_P1;HPM_P2
2022/11/04 00:02:02;;;;;;;1.10;0.90;;;25.10;62.90;;;;;;4977307;28;20807;-90
2022/11/04 00:04:31;;;;;;;1.23;1.00;;;25.20;62.90;;;;;;4977233;28;20498;-90
2022/11/04 00:06:58;;;;;;;3.93;0.90;;;25.10;62.80;;;;;;4977260;28;20462;-90
2022/11/04 00:09:26;;;;;;;1.50;1.00;;;25.10;62.80;;;;;;4977207;28;20457;-91
2022/11/04 00:14:38;;;;;;;3.40;1.00;;;25.10;62.80;;;;;;4976952;28;20899;-91
2022/11/04 00:17:20;;;;;;;1.20;1.00;;;25.10;62.80;;;;;;4977080;28;20448;-90
2022/11/04 00:33:44;;;;;;;1.50;1.13;;;25.00;62.80;;;;;;4960710;28;20458;-90
2022/11/04 00:36:12;;;;;;;1.40;0.93;;;25.00;62.80;;;;;;4976462;28;20951;-90
2022/11/04 00:38:39;;;;;;;1.63;1.00;;;25.00;63.70;;;;;;4976688;28;20449;-88
2022/11/04 00:41:24;;;;;;;1.40;1.00;;;25.00;62.80;;;;;;4976386;28;20452;-90
2022/11/04 00:43:51;;;;;;;1.17;0.83;;;25.00;62.80;;;;;;4976508;28;20852;-89
2022/11/04 00:46:18;;;;;;;1.20;1.10;;;25.00;62.80;;;;;;4976268;28;20476;-90
2022/11/04 00:48:45;;;;;;;1.40;1.10;;;25.00;62.80;;;;;;4976457;28;20601;-90
2022/11/04 00:51:13;;;;;;;1.20;0.80;;;25.00;62.80;;;;;;4976188;28;20452;-90
2022/11/04 00:53:40;;;;;;;1.00;0.80;;;25.00;62.70;;;;;;4976439;28;20459;-90
2022/11/04 00:56:07;;;;;;;1.70;1.00;;;25.00;62.70;;;;;;4976375;28;20806;-90
2022/11/04 00:58:34;;;;;;;1.10;1.00;;;25.00;62.70;;;;;;4976302;28;20448;-90
2022/11/04 01:01:00;;;;;;;1.10;0.90;;;25.00;62.70;;;;;;4976220;28;20440;-90
2022/11/04 01:03:27;;;;;;;1.40;1.07;;;25.10;62.80;;;;;;4975265;28;20968;-90
2022/11/04 01:05:57;;;;;;;1.10;0.90;;;25.00;62.70;;;;;;4976115;28;20934;-91
2022/11/04 01:08:25;;;;;;;1.20;0.90;;;25.00;62.70;;;;;;4976243;28;20527;-90
2022/11/04 01:10:52;;;;;;;1.20;1.00;;;25.00;62.70;;;;;;4976111;28;20483;-90
2022/11/04 01:13:19;;;;;;;1.20;1.10;;;25.00;62.70;;;;;;4975650;28;20445;-91
2022/11/04 01:15:46;;;;;;;1.47;0.90;;;25.00;62.70;;;;;;4975971;28;20450;-90
2022/11/04 01:18:13;;;;;;;2.10;1.10;;;25.00;62.70;;;;;;4975693;28;20480;-90
2022/11/04 01:20:40;;;;;;;1.00;0.90;;;25.00;62.70;;;;;;4975835;28;20826;-90
2022/11/04 01:23:06;;;;;;;1.03;0.93;;;25.00;62.70;;;;;;4975876;28;20448;-90
2022/11/04 01:25:38;;;;;;;1.10;0.80;;;25.00;62.70;;;;;;4975734;28;20983;-90
2022/11/04 01:28:05;;;;;;;1.10;1.00;;;25.00;62.60;;;;;;4975780;28;20451;-90
2022/11/04 01:30:32;;;;;;;1.10;0.90;;;25.00;62.60;;;;;;4975685;28;20454;-90
2022/11/04 01:32:59;;;;;;;0.97;0.70;;;25.00;62.70;;;;;;4975702;28;20455;-90
2022/11/04 01:35:26;;;;;;;1.10;0.80;;;25.00;62.70;;;;;;4975614;28;20447;-90
2022/11/04 01:37:52;;;;;;;1.23;0.80;;;25.00;62.70;;;;;;4975342;28;20448;-90
2022/11/04 01:40:19;;;;;;;1.87;1.00;;;25.00;62.60;;;;;;4975569;28;20469;-87
2022/11/04 01:42:47;;;;;;;1.20;1.03;;;25.00;62.60;;;;;;4975180;28;20537;-90
2022/11/04 01:45:17;;;;;;;1.60;0.90;;;25.00;62.70;;;;;;4975424;28;20585;-90
2022/11/04 01:47:48;;;;;;;1.40;1.10;;;25.00;62.60;;;;;;4975421;28;20518;-90
2022/11/04 01:50:20;;;;;;;1.10;1.00;;;25.00;62.70;;;;;;4975486;28;20439;-91
2022/11/04 01:52:52;;;;;;;2.00;0.90;;;25.00;62.60;;;;;;4975114;28;20434;-90
2022/11/04 01:55:23;;;;;;;1.20;1.00;;;25.00;63.50;;;;;;4975412;28;20440;-90
2022/11/04 01:57:54;;;;;;;1.00;0.83;;;25.00;62.70;;;;;;4975275;28;20823;-91
2022/11/04 02:00:21;;;;;;;1.10;0.97;;;25.20;62.90;;;;;;4975339;28;20446;-91
2022/11/04 02:02:56;;;;;;;1.10;0.90;;;24.90;62.60;;;;;;4975249;28;20450;-90
2022/11/04 02:05:23;;;;;;;1.20;1.00;;;25.00;62.60;;;;;;4975200;28;20482;-90
2022/11/04 02:07:54;;;;;;;1.10;0.93;;;24.90;62.60;;;;;;4975206;28;20452;-90
2022/11/04 02:10:24;;;;;;;1.20;1.00;;;24.90;62.60;;;;;;4975112;28;20447;-89
2022/11/04 02:12:52;;;;;;;1.13;0.90;;;24.90;62.60;;;;;;4974842;28;20444;-90
2022/11/04 02:15:27;;;;;;;1.30;1.00;;;24.90;62.50;;;;;;4974682;28;20490;-89
2022/11/04 02:18:27;;;;;;;1.10;1.00;;;25.00;62.60;;;;;;4974802;28;20578;-90
2022/11/04 02:21:45;;;;;;;1.20;1.10;;;25.00;62.50;;;;;;4975098;28;20433;-90
2022/11/04 02:24:29;;;;;;;1.20;0.80;;;25.00;62.70;;;;;;4970300;28;20447;-87
2022/11/04 02:27:15;;;;;;;1.57;0.90;;;24.90;62.60;;;;;;4975042;28;20451;-90
2022/11/04 02:30:06;;;;;;;1.10;0.90;;;24.90;62.60;;;;;;4974947;28;20441;-90
2022/11/04 02:33:00;;;;;;;1.10;0.90;;;24.90;62.60;;;;;;4974907;28;20502;-91
2022/11/04 02:35:39;;;;;;;1.10;0.80;;;24.90;62.60;;;;;;4974614;28;20433;-90
2022/11/04 02:38:13;;;;;;;1.10;0.90;;;24.90;62.70;;;;;;4974908;28;20531;-90
2022/11/04 02:40:45;;;;;;;1.07;0.97;;;24.90;62.60;;;;;;4974549;28;20948;-91
2022/11/04 02:43:19;;;;;;;1.00;0.80;;;24.90;62.60;;;;;;4974875;28;20436;-90
2022/11/04 02:45:51;;;;;;;1.00;0.80;;;24.90;62.60;;;;;;4974710;28;20569;-90
2022/11/04 02:48:24;;;;;;;1.20;0.80;;;24.90;62.60;;;;;;4974815;28;20444;-90
2022/11/04 02:50:55;;;;;;;1.00;0.80;;;24.90;62.60;;;;;;4974765;28;20435;-90
2022/11/04 02:53:29;;;;;;;1.10;0.93;;;24.90;62.60;;;;;;4974755;28;20527;-90
2022/11/04 02:55:58;;;;;;;1.03;0.77;;;24.90;62.60;;;;;;4974720;28;20502;-90
2022/11/04 02:58:30;;;;;;;1.00;0.90;;;24.90;62.50;;;;;;4974314;28;20451;-90
2022/11/04 03:01:00;;;;;;;1.10;0.80;;;24.90;62.50;;;;;;4974690;28;20443;-90
2022/11/04 03:03:30;;;;;;;1.00;0.80;;;24.90;62.60;;;;;;4974652;28;20443;-90
2022/11/04 03:06:00;;;;;;;1.07;0.80;;;24.90;62.50;;;;;;4974183;28;21032;-89
2022/11/04 03:08:31;;;;;;;1.17;0.90;;;24.90;62.50;;;;;;4974645;28;20455;-90
2022/11/04 03:11:03;;;;;;;1.00;0.70;;;24.90;62.50;;;;;;4974595;28;20440;-90
2022/11/04 03:13:36;;;;;;;1.27;1.07;;;24.90;62.50;;;;;;4974571;28;20439;-89
2022/11/04 03:16:10;;;;;;;1.10;0.90;;;24.90;62.50;;;;;;4974545;28;20532;-90
2022/11/04 03:18:47;;;;;;;1.00;0.80;;;24.90;62.60;;;;;;4974235;28;20525;-90
2022/11/04 03:21:15;;;;;;;1.10;0.73;;;24.90;62.50;;;;;;4974525;28;20445;-90
2022/11/04 03:23:42;;;;;;;0.93;0.67;;;24.80;62.40;;;;;;4974430;28;20456;-90
2022/11/04 03:26:15;;;;;;;1.10;0.90;;;24.80;62.40;;;;;;4974380;28;20498;-90
2022/11/04 03:28:47;;;;;;;1.00;0.80;;;24.80;62.40;;;;;;4977888;28;20435;-90
2022/11/04 03:31:22;;;;;;;1.10;0.80;;;24.80;62.30;;;;;;4978045;28;20440;-89
2022/11/04 03:33:52;;;;;;;1.00;0.70;;;24.80;62.40;;;;;;4977873;28;20442;-90
2022/11/04 03:36:19;;;;;;;2.00;0.80;;;24.80;62.40;;;;;;4977840;28;20461;-90
2022/11/04 03:38:47;;;;;;;1.00;0.70;;;24.80;62.40;;;;;;4978113;28;20454;-90
2022/11/04 03:41:18;;;;;;;1.00;0.80;;;24.80;62.40;;;;;;4977786;28;20811;-89
2022/11/04 03:43:45;;;;;;;1.00;0.80;;;24.80;62.30;;;;;;4977745;28;20424;-90
2022/11/04 03:46:12;;;;;;;1.03;0.90;;;24.80;62.30;;;;;;4977594;28;20495;-90
2022/11/04 03:48:43;;;;;;;1.00;0.80;;;24.80;62.30;;;;;;4977658;28;20818;-90
2022/11/04 03:51:10;;;;;;;1.00;0.90;;;24.80;62.30;;;;;;4977138;28;20455;-90
2022/11/04 03:53:37;;;;;;;0.93;0.70;;;24.80;62.30;;;;;;4977486;28;20444;-89
2022/11/04 03:56:20;;;;;;;0.90;0.70;;;25.00;62.60;;;;;;4977473;28;20593;-90
2022/11/04 03:58:59;;;;;;;1.20;0.90;;;24.80;62.30;;;;;;4977464;28;20792;-86
2022/11/04 04:01:34;;;;;;;1.03;0.87;;;24.80;62.30;;;;;;4977389;28;20446;-90
2022/11/04 04:04:12;;;;;;;1.20;0.80;;;24.80;63.20;;;;;;4977432;28;20552;-89
2022/11/04 04:06:41;;;;;;;1.00;0.80;;;24.80;62.30;;;;;;4976928;28;20494;-89
2022/11/04 04:09:18;;;;;;;1.00;0.80;;;24.80;62.30;;;;;;4976986;28;20956;-90
2022/11/04 04:11:52;;;;;;;1.00;0.80;;;24.80;62.30;;;;;;4977220;28;20795;-90
2022/11/04 04:17:23;;;;;;;1.00;0.80;;;24.80;62.30;;;;;;5111557;27;20517;-90
2022/11/04 04:19:54;;;;;;;1.00;0.70;;;24.80;62.30;;;;;;5111763;28;20425;-90
2022/11/04 04:22:24;;;;;;;1.00;0.83;;;24.90;62.50;;;;;;5111637;28;20438;-89
2022/11/04 04:27:40;;;;;;;1.00;0.73;;;24.80;62.30;;;;;;5111477;28;20449;-89
2022/11/04 04:30:09;;;;;;;0.90;0.70;;;24.80;62.30;;;;;;5111190;28;20452;-89
2022/11/04 04:32:42;;;;;;;1.00;0.80;;;24.80;62.30;;;;;;5111056;28;20969;-89
2022/11/04 04:44:58;;;;;;;1.07;0.90;;;24.80;62.30;;;;;;5110516;28;20494;-87
2022/11/04 04:46:21;;;;;;;1.20;0.93;;;24.70;62.30;;;;;;5111163;28;21004;-89
2022/11/04 04:48:50;;;;;;;1.00;0.80;;;24.70;62.20;;;;;;5111280;28;20426;-89
2022/11/04 04:51:17;;;;;;;1.00;0.90;;;24.90;62.50;;;;;;5110776;28;20445;-89
2022/11/04 04:53:44;;;;;;;1.00;0.80;;;24.70;62.20;;;;;;5111077;28;20441;-89
2022/11/04 04:56:11;;;;;;;1.67;0.97;;;24.90;62.40;;;;;;5110913;28;20495;-89
2022/11/04 04:58:38;;;;;;;1.00;0.83;;;24.70;62.20;;;;;;5110543;28;21003;-90
2022/11/04 05:01:05;;;;;;;0.97;0.77;;;24.90;62.40;;;;;;5110383;28;20947;-89
2022/11/04 05:03:31;;;;;;;0.90;0.70;;;24.70;62.10;;;;;;5110543;28;20437;-89
2022/11/04 05:06:00;;;;;;;0.97;0.70;;;24.70;62.10;;;;;;5110799;28;20426;-88
2022/11/04 05:08:27;;;;;;;1.07;0.70;;;24.80;62.30;;;;;;5111978;28;20798;-89
2022/11/04 05:10:54;;;;;;;0.93;0.80;;;24.70;62.10;;;;;;5110619;28;20451;-89
2022/11/04 05:13:28;;;;;;;0.90;0.70;;;24.70;62.10;;;;;;5110536;28;20497;-89
2022/11/04 05:15:56;;;;;;;0.97;0.70;;;24.70;62.10;;;;;;5109984;28;20974;-90
2022/11/04 05:18:23;;;;;;;0.90;0.70;;;24.70;62.10;;;;;;5110568;28;20495;-89
2022/11/04 05:20:50;;;;;;;1.00;0.87;;;24.70;62.20;;;;;;5108356;28;20444;-88
2022/11/04 05:23:18;;;;;;;1.00;0.70;;;24.70;62.10;;;;;;5090153;28;20443;-85
2022/11/04 05:25:45;;;;;;;3.80;1.10;;;24.70;62.00;;;;;;5090463;28;20445;-95
2022/11/04 05:28:12;;;;;;;0.97;0.70;;;24.70;61.60;;;;;;5080124;28;20448;-94
2022/11/04 05:30:39;;;;;;;0.90;0.70;;;24.70;61.70;;;;;;5076957;28;21122;-93
2022/11/04 05:33:06;;;;;;;0.90;0.70;;;24.80;62.10;;;;;;5076885;28;20443;-95
2022/11/04 05:35:33;;;;;;;1.10;0.80;;;24.70;62.00;;;;;;5077259;28;20493;-94
2022/11/04 05:38:00;;;;;;;1.00;0.80;;;24.70;62.10;;;;;;5077122;28;20536;-93
2022/11/04 05:40:28;;;;;;;1.00;0.80;;;24.80;62.30;;;;;;5077807;28;20532;-93
2022/11/04 05:42:58;;;;;;;0.90;0.70;;;24.70;62.30;;;;;;5077500;28;20510;-94
2022/11/04 05:45:24;;;;;;;2.30;0.70;;;24.70;62.30;;;;;;5076630;28;20463;-94
2022/11/04 05:47:58;;;;;;;1.97;0.73;;;24.70;62.50;;;;;;5076798;28;20438;-94
2022/11/04 05:50:25;;;;;;;1.10;0.90;;;24.70;62.50;;;;;;5076570;28;20914;-93
2022/11/04 05:52:52;;;;;;;1.20;0.83;;;24.80;62.70;;;;;;5076760;28;20809;-94
2022/11/04 05:55:18;;;;;;;1.30;0.80;;;24.70;62.70;;;;;;5076411;28;20475;-95
2022/11/04 05:57:47;;;;;;;1.90;0.90;;;24.70;62.80;;;;;;5076669;28;20499;-95
2022/11/04 06:00:14;;;;;;;1.20;0.90;;;24.70;62.80;;;;;;5076544;28;20466;-96
2022/11/04 06:02:41;;;;;;;1.00;0.70;;;24.70;62.90;;;;;;5076155;28;20925;-94
2022/11/04 06:05:09;;;;;;;2.83;1.00;;;24.70;62.90;;;;;;5076210;28;20445;-96
2022/11/04 06:07:36;;;;;;;1.00;0.70;;;24.70;62.90;;;;;;5076073;28;20455;-95
2022/11/04 06:10:04;;;;;;;1.57;0.80;;;24.70;62.90;;;;;;5076520;28;20445;-94
2022/11/04 06:12:30;;;;;;;1.53;0.93;;;24.70;62.90;;;;;;5077001;28;20451;-95
2022/11/04 06:14:59;;;;;;;1.53;0.80;;;24.70;63.00;;;;;;5076029;28;20449;-95
2022/11/04 06:17:25;;;;;;;1.40;0.80;;;24.70;63.00;;;;;;5076075;28;20829;-95
2022/11/04 06:19:52;;;;;;;1.00;0.80;;;24.80;63.20;;;;;;5076080;28;20454;-93
2022/11/04 06:22:19;;;;;;;1.03;0.70;;;24.70;63.10;;;;;;5076054;28;20596;-93
2022/11/04 06:24:46;;;;;;;1.23;0.90;;;24.70;63.00;;;;;;5076053;28;20442;-94
2022/11/04 06:27:13;;;;;;;5.43;0.80;;;24.70;63.10;;;;;;5076825;28;20457;-96
2022/11/04 06:29:40;;;;;;;1.00;0.80;;;24.80;63.20;;;;;;5076778;28;20466;-95
2022/11/04 06:32:09;;;;;;;1.40;0.80;;;24.70;62.90;;;;;;5075799;28;20539;-89
2022/11/04 06:34:36;;;;;;;1.70;1.17;;;24.70;63.30;;;;;;5075810;28;20452;-95
2022/11/04 06:37:03;;;;;;;1.10;0.90;;;24.70;63.20;;;;;;5075506;28;20493;-94
2022/11/04 06:39:30;;;;;;;2.13;0.87;;;24.70;63.20;;;;;;5074363;28;20439;-90
2022/11/04 06:41:57;;;;;;;1.23;0.80;;;24.80;63.50;;;;;;5085449;28;20445;-89
2022/11/04 06:44:24;;;;;;;1.03;0.93;;;24.70;63.00;;;;;;5095321;28;20442;-92
2022/11/04 06:46:50;;;;;;;1.50;0.80;;;24.70;63.30;;;;;;5095842;28;20461;-93
2022/11/04 06:49:21;;;;;;;1.37;0.80;;;24.70;63.40;;;;;;5095845;28;20453;-94
2022/11/04 06:51:49;;;;;;;1.10;0.80;;;24.70;63.40;;;;;;5095736;28;20441;-92
2022/11/04 06:54:17;;;;;;;1.60;0.83;;;24.70;63.40;;;;;;5095642;28;20446;-93
2022/11/04 06:56:44;;;;;;;1.17;0.73;;;24.70;63.40;;;;;;5095381;28;20481;-93
2022/11/04 06:59:15;;;;;;;1.00;0.80;;;24.80;63.40;;;;;;5095443;28;20849;-92
2022/11/04 07:01:41;;;;;;;1.03;0.80;;;24.70;63.30;;;;;;5095427;28;20532;-92
2022/11/04 07:04:10;;;;;;;1.10;0.77;;;24.70;63.30;;;;;;5095101;28;20449;-92
2022/11/04 07:06:38;;;;;;;1.77;1.03;;;24.70;63.30;;;;;;5095548;28;20448;-90
2022/11/04 07:09:08;;;;;;;1.53;0.80;;;24.70;63.30;;;;;;5088356;28;20454;-89
2022/11/04 07:11:34;;;;;;;1.57;0.90;;;24.70;63.20;;;;;;5076956;28;20467;-84
2022/11/04 07:14:01;;;;;;;1.10;0.80;;;24.70;63.30;;;;;;5076973;28;20447;-85
2022/11/04 07:16:29;;;;;;;1.10;0.93;;;24.70;63.30;;;;;;5094218;28;20485;-89
2022/11/04 07:18:56;;;;;;;1.00;0.70;;;24.70;63.10;;;;;;5094433;28;20804;-89
2022/11/04 07:21:23;;;;;;;1.17;0.97;;;24.70;63.10;;;;;;5094417;28;20489;-90
2022/11/04 07:23:51;;;;;;;1.00;0.70;;;24.70;63.20;;;;;;5094205;28;20595;-85
2022/11/04 07:26:18;;;;;;;1.13;0.83;;;24.70;63.10;;;;;;5094476;28;20443;-86
2022/11/04 07:28:45;;;;;;;1.27;0.90;;;24.70;63.10;;;;;;5093580;28;20486;-87
2022/11/04 07:31:13;;;;;;;1.40;1.00;;;24.70;63.90;;;;;;5094321;28;20468;-86
2022/11/04 07:33:40;;;;;;;2.60;1.40;;;24.80;63.20;;;;;;5094353;28;20441;-86
2022/11/04 07:36:10;;;;;;;1.33;0.90;;;24.80;63.20;;;;;;5093898;28;20483;-85
2022/11/04 07:38:37;;;;;;;2.00;1.00;;;24.70;63.00;;;;;;5094291;28;20532;-88
2022/11/04 07:41:08;;;;;;;1.10;0.87;;;24.80;63.10;;;;;;5093761;28;20437;-88
2022/11/04 07:43:34;;;;;;;1.50;1.00;;;24.70;62.90;;;;;;5094001;28;20436;-87
2022/11/04 07:46:03;;;;;;;2.47;1.00;;;24.60;62.80;;;;;;5093993;28;20446;-87
2022/11/04 07:48:30;;;;;;;1.43;0.97;;;24.70;62.90;;;;;;5093975;28;20444;-83
2022/11/04 07:50:58;;;;;;;1.27;0.90;;;24.70;62.80;;;;;;5093713;28;20444;-84
2022/11/04 07:53:25;;;;;;;1.30;1.00;;;24.70;62.80;;;;;;5093944;28;20529;-83
2022/11/04 07:55:56;;;;;;;1.30;1.00;;;24.60;62.70;;;;;;5093769;28;20435;-91
2022/11/04 07:58:25;;;;;;;1.60;1.00;;;24.70;62.80;;;;;;5093785;28;20446;-85
2022/11/04 08:00:58;;;;;;;1.30;1.00;;;24.60;62.70;;;;;;5093631;28;20441;-87
2022/11/04 08:03:25;;;;;;;1.20;0.80;;;24.70;62.80;;;;;;5094055;28;20442;-90
2022/11/04 08:05:55;;;;;;;1.10;0.90;;;24.60;62.70;;;;;;5085811;28;20449;-90
2022/11/04 08:08:22;;;;;;;1.27;0.80;;;24.70;62.80;;;;;;5073317;28;20442;-86
2022/11/04 08:10:52;;;;;;;4.27;1.37;;;24.60;62.60;;;;;;5072714;28;20442;-85
2022/11/04 08:13:19;;;;;;;2.87;1.30;;;24.60;61.00;;;;;;5073241;28;20925;-83
2022/11/04 08:15:47;;;;;;;2.00;1.33;;;24.50;60.60;;;;;;5072918;28;20479;-84
2022/11/04 08:18:14;;;;;;;1.23;1.00;;;24.60;61.10;;;;;;5072686;28;20488;-84
2022/11/04 08:20:46;;;;;;;1.30;1.20;;;24.60;61.20;;;;;;5072936;28;20941;-84
2022/11/04 08:23:13;;;;;;;1.60;1.00;;;24.60;61.10;;;;;;5072835;28;20447;-83
2022/11/04 08:25:40;;;;;;;3.10;1.00;;;24.70;61.10;;;;;;5072675;28;20780;-84
2022/11/04 08:28:06;;;;;;;2.97;2.03;;;24.70;60.90;;;;;;5072429;28;20812;-84
2022/11/04 08:30:33;;;;;;;1.90;1.20;;;24.80;60.80;;;;;;5072380;28;20946;-84
2022/11/04 08:33:02;;;;;;;2.30;1.30;;;24.70;60.50;;;;;;5072480;28;20460;-84
2022/11/04 08:35:30;;;;;;;1.40;1.10;;;24.80;60.50;;;;;;5072517;28;20442;-84
2022/11/04 08:37:57;;;;;;;3.57;1.33;;;24.90;60.50;;;;;;5072298;28;20535;-84
2022/11/04 08:40:24;;;;;;;4.40;2.07;;;24.80;60.10;;;;;;5072294;28;20438;-84
2022/11/04 08:42:51;;;;;;;1.90;1.30;;;24.80;59.90;;;;;;5072389;28;20447;-84
2022/11/04 08:45:18;;;;;;;3.00;1.13;;;24.80;59.50;;;;;;5072487;28;20446;-85
2022/11/04 08:47:44;;;;;;;3.70;1.53;;;24.80;59.60;;;;;;5072233;28;20454;-84
2022/11/04 08:50:13;;;;;;;3.70;1.67;;;25.10;59.70;;;;;;5072428;28;20446;-84
2022/11/04 08:52:39;;;;;;;1.70;1.50;;;24.90;59.50;;;;;;5073173;28;20447;-84
2022/11/04 08:55:07;;;;;;;2.03;1.20;;;24.90;59.40;;;;;;5072668;28;20449;-85
2022/11/04 08:57:34;;;;;;;4.00;1.30;;;24.90;59.20;;;;;;5072589;28;20486;-84
2022/11/04 09:00:01;;;;;;;2.90;1.40;;;25.00;59.10;;;;;;5072809;28;20969;-84
2022/11/04 09:02:27;;;;;;;3.60;1.30;;;25.00;59.10;;;;;;5073949;28;20450;-84
2022/11/04 09:04:54;;;;;;;5.47;1.70;;;25.00;59.10;;;;;;5076641;28;20863;-84
2022/11/04 09:07:22;;;;;;;2.17;1.40;;;25.00;59.20;;;;;;5076902;28;20806;-84
2022/11/04 09:09:49;;;;;;;1.20;1.00;;;25.00;59.20;;;;;;5076646;28;20439;-85
2022/11/04 09:12:16;;;;;;;2.63;1.20;;;25.00;59.20;;;;;;5076515;28;20443;-85
2022/11/04 09:14:43;;;;;;;2.13;1.50;;;24.90;59.10;;;;;;5076571;28;20449;-84
2022/11/04 09:17:09;;;;;;;2.20;1.33;;;24.90;59.20;;;;;;5076044;28;20486;-84
2022/11/04 09:19:36;;;;;;;2.63;1.40;;;24.90;59.10;;;;;;5077118;28;20442;-85
2022/11/04 09:22:03;;;;;;;2.40;1.73;;;24.90;59.80;;;;;;5076440;28;20520;-85
2022/11/04 09:24:31;;;;;;;2.00;1.30;;;24.90;59.80;;;;;;5076396;28;20441;-84
2022/11/04 09:26:58;;;;;;;4.80;1.43;;;24.80;59.20;;;;;;5076434;28;20964;-84
2022/11/04 09:29:25;;;;;;;2.47;1.23;;;24.80;59.30;;;;;;5076071;28;20991;-88
2022/11/04 09:31:55;;;;;;;1.77;1.30;;;24.80;59.40;;;;;;5091681;28;21118;-89
2022/11/04 09:34:21;;;;;;;2.47;1.30;;;24.80;59.50;;;;;;5076968;28;20506;-88
2022/11/04 09:36:48;;;;;;;5.00;1.20;;;24.80;59.50;;;;;;5078701;28;20475;-91
2022/11/04 09:39:17;;;;;;;2.60;1.20;;;24.80;59.50;;;;;;5096176;28;20442;-90
2022/11/04 09:41:59;;;;;;;2.83;1.53;;;24.90;59.50;;;;;;5096370;28;20474;-89
2022/11/04 09:44:30;;;;;;;2.33;1.80;;;25.00;59.40;;;;;;5096237;28;20950;-92
2022/11/04 09:47:01;;;;;;;2.97;1.10;;;25.10;59.30;;;;;;5096309;28;20936;-91
2022/11/04 09:49:34;;;;;;;1.97;1.40;;;25.20;59.20;;;;;;5096559;28;20434;-91
2022/11/04 09:52:05;;;;;;;2.10;1.27;;;25.30;59.20;;;;;;5096526;28;20445;-91
2022/11/04 09:54:40;;;;;;;1.43;1.20;;;25.30;59.20;;;;;;5096817;28;20436;-93
2022/11/04 09:57:16;;;;;;;4.77;1.63;;;25.30;59.10;;;;;;5096246;28;20482;-93
2022/11/04 09:59:43;;;;;;;1.90;1.60;;;25.20;59.00;;;;;;5096419;28;20476;-93
2022/11/04 10:02:29;;;;;;;1.83;1.20;;;25.20;59.10;;;;;;5096577;28;20444;-95
2022/11/04 10:05:04;;;;;;;3.33;1.20;;;25.20;59.10;;;;;;5096520;28;20443;-92
2022/11/04 10:07:44;;;;;;;4.70;1.27;;;25.10;59.20;;;;;;5096714;28;20904;-93
2022/11/04 10:10:18;;;;;;;2.90;1.50;;;25.20;59.20;;;;;;5094679;28;20452;-88
2022/11/04 10:13:00;;;;;;;1.60;1.37;;;25.00;59.20;;;;;;5097508;28;20425;-91
2022/11/04 10:16:08;;;;;;;2.50;1.40;;;25.00;59.30;;;;;;5095755;28;20482;-89
2022/11/04 10:19:04;;;;;;;2.13;1.33;;;25.00;59.30;;;;;;5093786;28;20514;-88
2022/11/04 10:21:40;;;;;;;1.27;1.00;;;25.00;59.50;;;;;;5075521;28;20447;-88
2022/11/04 10:24:16;;;;;;;1.93;1.23;;;25.00;59.60;;;;;;5075295;28;20453;-89
2022/11/04 10:26:45;;;;;;;2.80;1.77;;;25.00;59.60;;;;;;5075245;28;20474;-89
2022/11/04 10:29:16;;;;;;;2.07;1.20;;;25.10;59.80;;;;;;5074514;28;20461;-91
2022/11/04 10:31:45;;;;;;;3.17;1.73;;;25.20;60.10;;;;;;5089690;28;20454;-89
2022/11/04 10:34:23;;;;;;;2.00;1.30;;;25.20;60.10;;;;;;5095292;28;20448;-95
2022/11/04 10:36:51;;;;;;;2.70;1.40;;;25.40;60.20;;;;;;5096115;28;20446;-94
2022/11/04 10:39:28;;;;;;;1.60;1.10;;;25.30;60.20;;;;;;5096041;28;20448;-94
2022/11/04 10:41:57;;;;;;;2.40;1.10;;;25.30;60.20;;;;;;5095705;28;20449;-93
2022/11/04 10:44:28;;;;;;;1.60;1.20;;;25.30;60.20;;;;;;5094160;28;20453;-86
2022/11/04 10:47:13;;;;;;;2.43;1.57;;;25.40;60.20;;;;;;5094397;28;20438;-89
2022/11/04 10:50:00;;;;;;;2.50;1.20;;;25.40;60.00;;;;;;5084252;28;20454;-85
2022/11/04 10:52:26;;;;;;;1.43;1.27;;;25.30;59.80;;;;;;5066825;28;20459;-88
2022/11/04 10:54:53;;;;;;;1.90;1.13;;;25.40;59.90;;;;;;5089404;28;20441;-92
2022/11/04 10:57:23;;;;;;;1.10;0.93;;;25.30;59.90;;;;;;5094366;28;20887;-91
2022/11/04 10:59:54;;;;;;;2.67;1.50;;;25.30;59.90;;;;;;5094402;28;20470;-90
2022/11/04 11:02:46;;;;;;;3.27;1.40;;;25.30;60.30;;;;;;5094991;28;20797;-93
2022/11/04 11:05:23;;;;;;;2.60;2.20;;;25.40;60.40;;;;;;5094846;28;20516;-90
2022/11/04 11:07:52;;;;;;;1.77;1.10;;;25.40;60.50;;;;;;5096266;28;20433;-95
2022/11/04 11:10:22;;;;;;;1.47;1.17;;;25.30;60.40;;;;;;5094101;28;20443;-90
2022/11/04 11:12:57;;;;;;;1.83;1.17;;;25.40;60.50;;;;;;5093969;28;20445;-93
2022/11/04 11:15:34;;;;;;;1.70;1.10;;;25.30;60.40;;;;;;5085484;28;20482;-86
2022/11/04 11:18:14;;;;;;;1.73;1.00;;;25.40;60.50;;;;;;5081675;28;20481;-90
2022/11/04 11:20:41;;;;;;;1.60;1.10;;;25.40;60.30;;;;;;5094706;28;20525;-90
2022/11/04 11:23:35;;;;;;;1.83;1.10;;;25.30;59.70;;;;;;5094396;28;20856;-87
2022/11/04 11:26:03;;;;;;;2.00;1.03;;;25.50;59.60;;;;;;5093941;28;20446;-87
2022/11/04 11:28:36;;;;;;;3.77;1.23;;;25.30;59.60;;;;;;5093861;28;20486;-85
2022/11/04 11:31:15;;;;;;;1.20;1.10;;;25.30;59.60;;;;;;5094155;28;20450;-87
2022/11/04 11:33:49;;;;;;;2.60;1.33;;;25.30;60.10;;;;;;5094311;28;21338;-87
2022/11/04 11:36:21;;;;;;;3.17;1.50;;;25.30;60.50;;;;;;5094186;28;20447;-87
2022/11/04 11:39:00;;;;;;;1.60;0.90;;;25.40;60.80;;;;;;5093960;28;20489;-86
2022/11/04 11:41:33;;;;;;;2.90;1.20;;;25.40;60.80;;;;;;5094278;28;20449;-87
2022/11/04 11:44:04;;;;;;;1.80;0.97;;;25.30;60.90;;;;;;5094346;28;20435;-87
2022/11/04 11:46:36;;;;;;;1.77;1.03;;;25.30;60.80;;;;;;5093699;28;20442;-87
2022/11/04 11:49:05;;;;;;;2.53;1.00;;;25.30;60.90;;;;;;5093879;28;20451;-87
2022/11/04 11:51:34;;;;;;;2.83;1.10;;;25.30;60.90;;;;;;5093218;28;20435;-87
2022/11/04 11:54:16;;;;;;;2.30;1.33;;;25.30;61.00;;;;;;5093365;28;20445;-87
2022/11/04 11:56:46;;;;;;;2.03;1.30;;;25.30;61.00;;;;;;5093615;28;20451;-87
2022/11/04 11:59:34;;;;;;;5.63;1.40;;;25.30;61.10;;;;;;5093113;28;20500;-87
2022/11/04 12:02:23;;;;;;;1.43;1.23;;;25.30;61.10;;;;;;5093670;28;20470;-87
2022/11/04 12:04:50;;;;;;;1.93;1.27;;;25.50;61.40;;;;;;5093333;28;20462;-87
2022/11/04 12:07:27;;;;;;;1.83;1.07;;;25.20;61.30;;;;;;5093452;28;20864;-87
2022/11/04 12:09:59;;;;;;;1.50;1.00;;;25.20;61.30;;;;;;5093797;28;20558;-87
2022/11/04 12:12:42;;;;;;;1.60;1.20;;;25.20;61.30;;;;;;5093853;28;20453;-86
2022/11/04 12:15:24;;;;;;;1.10;1.00;;;25.20;61.30;;;;;;5093238;28;20492;-87
2022/11/04 12:18:06;;;;;;;3.37;1.50;;;25.20;61.30;;;;;;5093353;28;21015;-87
2022/11/04 12:20:45;;;;;;;3.10;1.30;;;25.20;61.40;;;;;;5093429;28;20439;-86
2022/11/04 12:23:20;;;;;;;1.30;0.90;;;25.20;61.40;;;;;;5093770;28;20435;-86
2022/11/04 12:26:00;;;;;;;1.60;1.07;;;25.20;61.40;;;;;;5093523;28;20537;-86
2022/11/04 12:28:38;;;;;;;1.20;1.10;;;25.20;61.40;;;;;;5093644;28;20511;-87
2022/11/04 12:31:17;;;;;;;1.27;1.00;;;25.20;61.40;;;;;;5093360;28;20479;-87
2022/11/04 12:33:54;;;;;;;1.30;1.10;;;25.20;61.40;;;;;;5093526;28;20442;-87
2022/11/04 12:36:31;;;;;;;1.00;0.80;;;25.10;61.30;;;;;;5093484;28;20438;-87
2022/11/04 12:39:17;;;;;;;2.10;1.00;;;25.10;61.40;;;;;;5097270;28;20485;-86
2022/11/04 12:41:55;;;;;;;1.80;1.10;;;25.20;61.40;;;;;;5097307;28;20446;-86
2022/11/04 12:44:29;;;;;;;1.63;1.10;;;25.10;61.40;;;;;;5097550;28;20434;-86
2022/11/04 12:47:08;;;;;;;2.13;1.03;;;25.10;61.40;;;;;;5097410;28;20449;-87
2022/11/04 12:49:53;;;;;;;1.50;1.13;;;25.10;61.50;;;;;;5097291;28;20929;-87
2022/11/04 12:52:36;;;;;;;3.00;1.20;;;25.10;61.40;;;;;;5097358;28;20782;-87
2022/11/04 12:55:22;;;;;;;1.30;1.00;;;25.10;61.50;;;;;;5097195;28;20445;-87
2022/11/04 12:57:59;;;;;;;2.70;1.30;;;25.10;61.50;;;;;;5097038;28;20592;-87
2022/11/04 13:00:27;;;;;;;1.20;1.00;;;25.10;61.50;;;;;;5097185;28;20437;-87
2022/11/04 13:03:00;;;;;;;2.00;1.00;;;25.10;61.60;;;;;;5097221;28;20528;-86
2022/11/04 13:05:39;;;;;;;2.50;1.33;;;25.10;61.70;;;;;;5096923;28;20959;-87
2022/11/04 13:08:15;;;;;;;2.87;1.63;;;25.10;61.60;;;;;;5097819;28;20430;-87
2022/11/04 13:10:46;;;;;;;2.23;1.47;;;25.10;61.60;;;;;;5097224;28;20435;-87
2022/11/04 13:13:16;;;;;;;1.43;0.90;;;25.00;61.70;;;;;;5096785;28;20937;-87
2022/11/04 13:15:47;;;;;;;1.40;1.30;;;25.00;61.70;;;;;;5096691;28;20478;-86
2022/11/04 13:18:19;;;;;;;2.70;1.20;;;25.20;61.80;;;;;;5096866;28;20507;-87
2022/11/04 13:20:52;;;;;;;2.63;1.30;;;25.00;61.70;;;;;;5096685;28;20440;-86
2022/11/04 13:23:27;;;;;;;1.40;1.10;;;25.00;61.70;;;;;;5096532;28;20431;-87
2022/11/04 13:25:57;;;;;;;1.20;1.00;;;25.00;61.70;;;;;;5096537;28;20462;-87
2022/11/04 13:28:24;;;;;;;1.30;1.10;;;25.10;61.90;;;;;;5096708;28;20505;-86
2022/11/04 13:31:01;;;;;;;2.03;1.17;;;25.00;61.80;;;;;;5096823;28;20444;-87
2022/11/04 13:33:36;;;;;;;1.60;1.20;;;25.00;61.70;;;;;;5096679;28;20952;-86
2022/11/04 13:36:12;;;;;;;1.30;1.00;;;25.00;61.80;;;;;;5096571;28;20439;-87
2022/11/04 13:38:43;;;;;;;2.17;1.17;;;25.00;61.80;;;;;;5096406;28;20506;-88
2022/11/04 13:41:46;;;;;;;3.10;1.33;;;25.00;61.80;;;;;;5096762;28;20446;-88